Terminal Aerodrome Forecast
Issued by NWS

Home | Current Version | Previous Version | Text Only | Print | Product List | Glossary On
Versions: 1 2 3 4 5 6 7 8 9 10 11 12
000
FTUS44 KLZK 050534
TAFBPK
TAF
KBPK 050534Z 0506/0606 08003KT P6SM -RA VCSH BKN050 OVC100
      TEMPO 0506/0509 5SM -TSRA BKN050CB
     FM051300 16005KT P6SM VCSH SCT050 BKN100 BKN250
     FM051900 19007KT P6SM VCTS SCT050CB BKN100 BKN250=

USA.gov is the U.S. government's official web portal to all federal, state and local government web resources and services.